sensor_id;sensor_type;location;lat;lon;timestamp;P1;durP1;ratioP1;P2;durP2;ratioP2
21777;SDS011;11050;52.222;20.916;2022-07-23T00:00:00;15.18;;;10.25;;
21777;SDS011;11050;52.222;20.916;2022-07-23T00:02:27;11.77;;;10.00;;
21777;SDS011;11050;52.222;20.916;2022-07-23T00:04:53;12.98;;;10.20;;
21777;SDS011;11050;52.222;20.916;2022-07-23T00:07:19;14.00;;;10.45;;
21777;SDS011;11050;52.222;20.916;2022-07-23T00:09:45;15.10;;;10.65;;
21777;SDS011;11050;52.222;20.916;2022-07-23T00:12:10;14.75;;;10.52;;
21777;SDS011;11050;52.222;20.916;2022-07-23T00:14:36;13.35;;;10.30;;
21777;SDS011;11050;52.222;20.916;2022-07-23T00:17:02;14.55;;;10.52;;
21777;SDS011;11050;52.222;20.916;2022-07-23T00:19:28;12.32;;;10.25;;
21777;SDS011;11050;52.222;20.916;2022-07-23T00:21:54;13.57;;;10.35;;
21777;SDS011;11050;52.222;20.916;2022-07-23T00:24:20;12.10;;;10.00;;
21777;SDS011;11050;52.222;20.916;2022-07-23T00:26:45;14.05;;;10.43;;
21777;SDS011;11050;52.222;20.916;2022-07-23T00:29:11;12.82;;;10.18;;
21777;SDS011;11050;52.222;20.916;2022-07-23T00:31:37;17.05;;;10.82;;
21777;SDS011;11050;52.222;20.916;2022-07-23T00:34:03;13.30;;;10.80;;
21777;SDS011;11050;52.222;20.916;2022-07-23T00:36:29;18.77;;;11.32;;
21777;SDS011;11050;52.222;20.916;2022-07-23T00:38:56;18.95;;;11.45;;
21777;SDS011;11050;52.222;20.916;2022-07-23T00:41:22;11.98;;;10.43;;
21777;SDS011;11050;52.222;20.916;2022-07-23T00:43:48;13.77;;;11.38;;
21777;SDS011;11050;52.222;20.916;2022-07-23T00:46:20;14.70;;;10.73;;
21777;SDS011;11050;52.222;20.916;2022-07-23T00:48:48;18.25;;;11.98;;
21777;SDS011;11050;52.222;20.916;2022-07-23T00:51:17;15.52;;;11.77;;
21777;SDS011;11050;52.222;20.916;2022-07-23T00:53:43;18.13;;;11.48;;
21777;SDS011;11050;52.222;20.916;2022-07-23T00:56:10;15.02;;;11.52;;
21777;SDS011;11050;52.222;20.916;2022-07-23T00:58:37;13.88;;;11.35;;
21777;SDS011;11050;52.222;20.916;2022-07-23T01:01:06;15.40;;;11.40;;
21777;SDS011;11050;52.222;20.916;2022-07-23T01:03:33;14.07;;;11.20;;
21777;SDS011;11050;52.222;20.916;2022-07-23T01:05:58;15.45;;;10.38;;
21777;SDS011;11050;52.222;20.916;2022-07-23T01:08:25;13.05;;;11.55;;
21777;SDS011;11050;52.222;20.916;2022-07-23T01:10:51;14.27;;;12.13;;
21777;SDS011;11050;52.222;20.916;2022-07-23T01:13:17;15.00;;;12.00;;
21777;SDS011;11050;52.222;20.916;2022-07-23T01:15:42;15.00;;;12.65;;
21777;SDS011;11050;52.222;20.916;2022-07-23T01:18:08;13.18;;;11.50;;
21777;SDS011;11050;52.222;20.916;2022-07-23T01:20:35;16.73;;;12.52;;
21777;SDS011;11050;52.222;20.916;2022-07-23T01:23:01;15.35;;;12.63;;
21777;SDS011;11050;52.222;20.916;2022-07-23T01:25:27;14.23;;;12.73;;
21777;SDS011;11050;52.222;20.916;2022-07-23T01:27:53;15.63;;;12.25;;
21777;SDS011;11050;52.222;20.916;2022-07-23T01:30:19;19.02;;;13.43;;
21777;SDS011;11050;52.222;20.916;2022-07-23T01:32:46;15.90;;;12.60;;
21777;SDS011;11050;52.222;20.916;2022-07-23T01:35:12;14.73;;;13.20;;
21777;SDS011;11050;52.222;20.916;2022-07-23T01:37:38;17.63;;;12.55;;
21777;SDS011;11050;52.222;20.916;2022-07-23T01:40:04;15.70;;;14.20;;
21777;SDS011;11050;52.222;20.916;2022-07-23T01:42:31;16.88;;;13.88;;
21777;SDS011;11050;52.222;20.916;2022-07-23T01:44:56;15.38;;;13.77;;
21777;SDS011;11050;52.222;20.916;2022-07-23T01:47:22;18.38;;;13.80;;
21777;SDS011;11050;52.222;20.916;2022-07-23T01:49:48;18.70;;;14.63;;
21777;SDS011;11050;52.222;20.916;2022-07-23T01:52:14;19.65;;;14.77;;
21777;SDS011;11050;52.222;20.916;2022-07-23T01:54:41;16.70;;;14.27;;
21777;SDS011;11050;52.222;20.916;2022-07-23T01:57:07;20.88;;;14.38;;
21777;SDS011;11050;52.222;20.916;2022-07-23T01:59:34;16.88;;;14.07;;
21777;SDS011;11050;52.222;20.916;2022-07-23T02:02:00;20.67;;;15.50;;
21777;SDS011;11050;52.222;20.916;2022-07-23T02:04:28;18.83;;;14.40;;
21777;SDS011;11050;52.222;20.916;2022-07-23T02:06:54;18.10;;;15.63;;
21777;SDS011;11050;52.222;20.916;2022-07-23T02:09:20;25.85;;;15.43;;
21777;SDS011;11050;52.222;20.916;2022-07-23T02:11:46;18.92;;;15.57;;
21777;SDS011;11050;52.222;20.916;2022-07-23T02:14:12;17.65;;;15.43;;
21777;SDS011;11050;52.222;20.916;2022-07-23T02:16:38;18.55;;;14.85;;
21777;SDS011;11050;52.222;20.916;2022-07-23T02:19:04;17.13;;;14.52;;
21777;SDS011;11050;52.222;20.916;2022-07-23T02:21:30;17.95;;;14.55;;
21777;SDS011;11050;52.222;20.916;2022-07-23T02:23:55;20.02;;;14.45;;
21777;SDS011;11050;52.222;20.916;2022-07-23T02:26:22;17.17;;;14.80;;
21777;SDS011;11050;52.222;20.916;2022-07-23T02:28:48;21.70;;;16.42;;
21777;SDS011;11050;52.222;20.916;2022-07-23T02:31:13;21.17;;;15.70;;
21777;SDS011;11050;52.222;20.916;2022-07-23T02:33:39;21.10;;;16.02;;
21777;SDS011;11050;52.222;20.916;2022-07-23T02:36:05;17.65;;;15.65;;
21777;SDS011;11050;52.222;20.916;2022-07-23T02:38:31;18.55;;;15.90;;
21777;SDS011;11050;52.222;20.916;2022-07-23T02:40:57;18.35;;;15.35;;
21777;SDS011;11050;52.222;20.916;2022-07-23T02:43:23;20.88;;;14.35;;
21777;SDS011;11050;52.222;20.916;2022-07-23T02:45:48;23.80;;;15.70;;
21777;SDS011;11050;52.222;20.916;2022-07-23T02:48:14;18.13;;;14.57;;
21777;SDS011;11050;52.222;20.916;2022-07-23T02:50:40;24.00;;;15.32;;
21777;SDS011;11050;52.222;20.916;2022-07-23T02:53:06;18.40;;;15.27;;
21777;SDS011;11050;52.222;20.916;2022-07-23T02:55:31;22.50;;;15.77;;
21777;SDS011;11050;52.222;20.916;2022-07-23T02:57:57;17.60;;;15.07;;
21777;SDS011;11050;52.222;20.916;2022-07-23T03:00:23;18.45;;;16.08;;
21777;SDS011;11050;52.222;20.916;2022-07-23T03:02:49;17.35;;;15.30;;
21777;SDS011;11050;52.222;20.916;2022-07-23T03:05:15;19.13;;;16.17;;
21777;SDS011;11050;52.222;20.916;2022-07-23T03:07:40;18.02;;;16.00;;
21777;SDS011;11050;52.222;20.916;2022-07-23T03:10:06;18.95;;;15.57;;
21777;SDS011;11050;52.222;20.916;2022-07-23T03:12:32;17.88;;;15.98;;
21777;SDS011;11050;52.222;20.916;2022-07-23T03:14:58;18.80;;;15.50;;
21777;SDS011;11050;52.222;20.916;2022-07-23T03:17:24;17.70;;;15.50;;
21777;SDS011;11050;52.222;20.916;2022-07-23T03:19:50;17.38;;;14.95;;
21777;SDS011;11050;52.222;20.916;2022-07-23T03:22:15;20.65;;;16.10;;
21777;SDS011;11050;52.222;20.916;2022-07-23T03:24:41;21.73;;;17.38;;
21777;SDS011;11050;52.222;20.916;2022-07-23T03:27:20;21.40;;;17.83;;
21777;SDS011;11050;52.222;20.916;2022-07-23T03:29:47;23.98;;;18.60;;
21777;SDS011;11050;52.222;20.916;2022-07-23T03:32:14;25.17;;;17.52;;
21777;SDS011;11050;52.222;20.916;2022-07-23T03:34:40;23.90;;;18.70;;
21777;SDS011;11050;52.222;20.916;2022-07-23T03:37:06;22.00;;;18.00;;
21777;SDS011;11050;52.222;20.916;2022-07-23T03:39:32;21.63;;;16.95;;
21777;SDS011;11050;52.222;20.916;2022-07-23T03:41:57;23.50;;;18.05;;
21777;SDS011;11050;52.222;20.916;2022-07-23T03:44:23;23.48;;;19.33;;
21777;SDS011;11050;52.222;20.916;2022-07-23T03:46:49;25.23;;;18.40;;
21777;SDS011;11050;52.222;20.916;2022-07-23T03:49:15;21.65;;;17.73;;
21777;SDS011;11050;52.222;20.916;2022-07-23T03:51:41;20.02;;;17.88;;
21777;SDS011;11050;52.222;20.916;2022-07-23T03:54:07;21.13;;;16.70;;
21777;SDS011;11050;52.222;20.916;2022-07-23T03:56:33;19.95;;;17.50;;
21777;SDS011;11050;52.222;20.916;2022-07-23T03:58:58;23.35;;;17.95;;
21777;SDS011;11050;52.222;20.916;2022-07-23T04:01:24;20.25;;;17.40;;
21777;SDS011;11050;52.222;20.916;2022-07-23T04:03:50;19.70;;;16.80;;
21777;SDS011;11050;52.222;20.916;2022-07-23T04:06:15;22.35;;;18.30;;
21777;SDS011;11050;52.222;20.916;2022-07-23T04:08:41;22.33;;;17.88;;
21777;SDS011;11050;52.222;20.916;2022-07-23T04:11:07;26.77;;;17.17;;
21777;SDS011;11050;52.222;20.916;2022-07-23T04:13:33;20.80;;;16.75;;
21777;SDS011;11050;52.222;20.916;2022-07-23T04:15:59;25.15;;;17.45;;
21777;SDS011;11050;52.222;20.916;2022-07-23T04:18:24;21.08;;;16.88;;
21777;SDS011;11050;52.222;20.916;2022-07-23T04:20:50;22.80;;;19.02;;
21777;SDS011;11050;52.222;20.916;2022-07-23T04:23:17;20.85;;;17.10;;
21777;SDS011;11050;52.222;20.916;2022-07-23T04:25:43;20.13;;;17.52;;
21777;SDS011;11050;52.222;20.916;2022-07-23T04:28:09;21.70;;;17.23;;
21777;SDS011;11050;52.222;20.916;2022-07-23T04:30:35;21.30;;;17.55;;
21777;SDS011;11050;52.222;20.916;2022-07-23T04:33:01;20.67;;;17.42;;
21777;SDS011;11050;52.222;20.916;2022-07-23T04:35:30;24.40;;;18.95;;
21777;SDS011;11050;52.222;20.916;2022-07-23T04:37:56;20.17;;;17.65;;
21777;SDS011;11050;52.222;20.916;2022-07-23T04:40:22;20.50;;;18.13;;
21777;SDS011;11050;52.222;20.916;2022-07-23T04:42:47;20.25;;;18.08;;
21777;SDS011;11050;52.222;20.916;2022-07-23T04:45:13;20.23;;;17.73;;
21777;SDS011;11050;52.222;20.916;2022-07-23T04:47:52;19.48;;;16.02;;
21777;SDS011;11050;52.222;20.916;2022-07-23T04:50:18;20.75;;;18.50;;
21777;SDS011;11050;52.222;20.916;2022-07-23T04:52:46;24.23;;;18.20;;
21777;SDS011;11050;52.222;20.916;2022-07-23T04:55:14;21.65;;;17.83;;
21777;SDS011;11050;52.222;20.916;2022-07-23T04:57:41;20.15;;;18.05;;
21777;SDS011;11050;52.222;20.916;2022-07-23T05:00:07;20.35;;;16.83;;
21777;SDS011;11050;52.222;20.916;2022-07-23T05:02:34;22.10;;;16.58;;
21777;SDS011;11050;52.222;20.916;2022-07-23T05:05:00;23.85;;;16.77;;
21777;SDS011;11050;52.222;20.916;2022-07-23T05:07:26;19.30;;;17.00;;
21777;SDS011;11050;52.222;20.916;2022-07-23T05:09:52;18.80;;;16.80;;
21777;SDS011;11050;52.222;20.916;2022-07-23T05:12:17;18.98;;;16.55;;
21777;SDS011;11050;52.222;20.916;2022-07-23T05:14:43;20.58;;;16.55;;
21777;SDS011;11050;52.222;20.916;2022-07-23T05:17:09;19.35;;;16.50;;
21777;SDS011;11050;52.222;20.916;2022-07-23T05:19:35;17.98;;;15.65;;
21777;SDS011;11050;52.222;20.916;2022-07-23T05:22:01;18.92;;;15.85;;
21777;SDS011;11050;52.222;20.916;2022-07-23T05:24:27;20.23;;;14.88;;
21777;SDS011;11050;52.222;20.916;2022-07-23T05:26:53;17.88;;;15.35;;
21777;SDS011;11050;52.222;20.916;2022-07-23T05:29:19;17.38;;;14.65;;
21777;SDS011;11050;52.222;20.916;2022-07-23T05:31:45;17.58;;;15.15;;
21777;SDS011;11050;52.222;20.916;2022-07-23T05:34:10;18.95;;;15.68;;
21777;SDS011;11050;52.222;20.916;2022-07-23T05:36:36;19.15;;;15.88;;
21777;SDS011;11050;52.222;20.916;2022-07-23T05:39:03;19.75;;;15.27;;
21777;SDS011;11050;52.222;20.916;2022-07-23T05:41:29;19.73;;;14.75;;
21777;SDS011;11050;52.222;20.916;2022-07-23T05:43:54;17.48;;;15.52;;
21777;SDS011;11050;52.222;20.916;2022-07-23T05:46:21;20.80;;;15.90;;
21777;SDS011;11050;52.222;20.916;2022-07-23T05:48:46;16.77;;;14.63;;
21777;SDS011;11050;52.222;20.916;2022-07-23T05:51:19;16.17;;;14.48;;
21777;SDS011;11050;52.222;20.916;2022-07-23T05:53:46;15.50;;;13.82;;
21777;SDS011;11050;52.222;20.916;2022-07-23T05:56:12;16.90;;;15.20;;
21777;SDS011;11050;52.222;20.916;2022-07-23T05:58:39;21.85;;;14.85;;
21777;SDS011;11050;52.222;20.916;2022-07-23T06:01:05;17.65;;;15.77;;
21777;SDS011;11050;52.222;20.916;2022-07-23T06:03:30;19.65;;;16.02;;
21777;SDS011;11050;52.222;20.916;2022-07-23T06:05:56;17.23;;;15.63;;
21777;SDS011;11050;52.222;20.916;2022-07-23T06:08:22;18.70;;;15.60;;
21777;SDS011;11050;52.222;20.916;2022-07-23T06:10:48;20.25;;;15.73;;
21777;SDS011;11050;52.222;20.916;2022-07-23T06:13:14;20.45;;;15.43;;
21777;SDS011;11050;52.222;20.916;2022-07-23T06:15:40;19.38;;;15.35;;
21777;SDS011;11050;52.222;20.916;2022-07-23T06:18:05;18.00;;;15.32;;
21777;SDS011;11050;52.222;20.916;2022-07-23T06:20:31;18.17;;;14.75;;
21777;SDS011;11050;52.222;20.916;2022-07-23T06:22:57;17.08;;;15.15;;
21777;SDS011;11050;52.222;20.916;2022-07-23T06:25:23;17.73;;;14.00;;
21777;SDS011;11050;52.222;20.916;2022-07-23T06:27:49;14.98;;;13.40;;
21777;SDS011;11050;52.222;20.916;2022-07-23T06:30:15;17.55;;;14.38;;
21777;SDS011;11050;52.222;20.916;2022-07-23T06:32:42;17.20;;;13.45;;
21777;SDS011;11050;52.222;20.916;2022-07-23T06:35:08;17.08;;;13.95;;
21777;SDS011;11050;52.222;20.916;2022-07-23T06:37:34;14.65;;;13.15;;
21777;SDS011;11050;52.222;20.916;2022-07-23T06:40:00;15.55;;;12.88;;
21777;SDS011;11050;52.222;20.916;2022-07-23T06:42:27;15.63;;;13.98;;
21777;SDS011;11050;52.222;20.916;2022-07-23T06:44:53;17.35;;;14.25;;
21777;SDS011;11050;52.222;20.916;2022-07-23T06:47:19;15.88;;;14.10;;
21777;SDS011;11050;52.222;20.916;2022-07-23T06:49:44;15.73;;;14.23;;
21777;SDS011;11050;52.222;20.916;2022-07-23T06:52:10;14.18;;;12.80;;
21777;SDS011;11050;52.222;20.916;2022-07-23T06:54:36;13.82;;;12.23;;
21777;SDS011;11050;52.222;20.916;2022-07-23T06:57:02;15.57;;;13.40;;
21777;SDS011;11050;52.222;20.916;2022-07-23T06:59:28;15.00;;;13.20;;
21777;SDS011;11050;52.222;20.916;2022-07-23T07:01:54;15.02;;;13.43;;
21777;SDS011;11050;52.222;20.916;2022-07-23T07:04:20;18.58;;;13.55;;
21777;SDS011;11050;52.222;20.916;2022-07-23T07:06:46;17.75;;;13.25;;
21777;SDS011;11050;52.222;20.916;2022-07-23T07:09:12;15.98;;;12.13;;
21777;SDS011;11050;52.222;20.916;2022-07-23T07:11:37;13.63;;;12.20;;
21777;SDS011;11050;52.222;20.916;2022-07-23T07:14:03;14.88;;;13.15;;
21777;SDS011;11050;52.222;20.916;2022-07-23T07:16:29;17.23;;;13.60;;
21777;SDS011;11050;52.222;20.916;2022-07-23T07:18:55;14.80;;;12.30;;
21777;SDS011;11050;52.222;20.916;2022-07-23T07:21:21;14.13;;;12.73;;
21777;SDS011;11050;52.222;20.916;2022-07-23T07:23:46;13.82;;;11.32;;
21777;SDS011;11050;52.222;20.916;2022-07-23T07:26:12;13.65;;;12.32;;
21777;SDS011;11050;52.222;20.916;2022-07-23T07:28:38;12.32;;;10.18;;
21777;SDS011;11050;52.222;20.916;2022-07-23T07:31:04;12.48;;;10.82;;
21777;SDS011;11050;52.222;20.916;2022-07-23T07:33:30;12.45;;;11.02;;
21777;SDS011;11050;52.222;20.916;2022-07-23T07:35:56;11.32;;;10.23;;
21777;SDS011;11050;52.222;20.916;2022-07-23T07:38:21;15.68;;;10.45;;
21777;SDS011;11050;52.222;20.916;2022-07-23T07:40:47;20.42;;;11.10;;
21777;SDS011;11050;52.222;20.916;2022-07-23T07:43:13;12.73;;;11.05;;
21777;SDS011;11050;52.222;20.916;2022-07-23T07:45:39;10.45;;;9.43;;
21777;SDS011;11050;52.222;20.916;2022-07-23T07:48:05;11.60;;;10.32;;
21777;SDS011;11050;52.222;20.916;2022-07-23T07:50:30;12.10;;;10.80;;
21777;SDS011;11050;52.222;20.916;2022-07-23T07:52:56;11.57;;;10.45;;
21777;SDS011;11050;52.222;20.916;2022-07-23T07:55:22;12.05;;;10.98;;
21777;SDS011;11050;52.222;20.916;2022-07-23T07:57:48;12.07;;;10.98;;
21777;SDS011;11050;52.222;20.916;2022-07-23T08:00:13;12.25;;;10.82;;
21777;SDS011;11050;52.222;20.916;2022-07-23T08:02:44;12.40;;;10.35;;
21777;SDS011;11050;52.222;20.916;2022-07-23T08:05:13;11.32;;;10.15;;
21777;SDS011;11050;52.222;20.916;2022-07-23T08:07:39;13.23;;;11.18;;
21777;SDS011;11050;52.222;20.916;2022-07-23T08:10:06;14.15;;;11.10;;
21777;SDS011;11050;52.222;20.916;2022-07-23T08:12:46;14.82;;;9.98;;
21777;SDS011;11050;52.222;20.916;2022-07-23T08:15:22;11.75;;;10.65;;
21777;SDS011;11050;52.222;20.916;2022-07-23T08:17:49;13.52;;;10.73;;
21777;SDS011;11050;52.222;20.916;2022-07-23T08:20:16;14.45;;;10.50;;
21777;SDS011;11050;52.222;20.916;2022-07-23T08:22:45;11.02;;;9.85;;
21777;SDS011;11050;52.222;20.916;2022-07-23T08:25:17;10.82;;;9.85;;
21777;SDS011;11050;52.222;20.916;2022-07-23T08:27:57;11.10;;;10.05;;
21777;SDS011;11050;52.222;20.916;2022-07-23T08:30:25;10.82;;;9.77;;
21777;SDS011;11050;52.222;20.916;2022-07-23T08:35:33;11.05;;;9.95;;
21777;SDS011;11050;52.222;20.916;2022-07-23T08:38:03;14.30;;;10.85;;
21777;SDS011;11050;52.222;20.916;2022-07-23T08:40:33;11.25;;;10.23;;
21777;SDS011;11050;52.222;20.916;2022-07-23T08:43:04;11.32;;;10.23;;
21777;SDS011;11050;52.222;20.916;2022-07-23T08:45:35;12.38;;;10.35;;
21777;SDS011;11050;52.222;20.916;2022-07-23T08:48:05;10.63;;;9.63;;
21777;SDS011;11050;52.222;20.916;2022-07-23T08:50:38;12.77;;;10.00;;
21777;SDS011;11050;52.222;20.916;2022-07-23T08:53:14;11.48;;;10.38;;
21777;SDS011;11050;52.222;20.916;2022-07-23T08:55:46;10.55;;;9.48;;
21777;SDS011;11050;52.222;20.916;2022-07-23T08:58:16;11.52;;;10.43;;
21777;SDS011;11050;52.222;20.916;2022-07-23T09:00:43;10.98;;;9.88;;
21777;SDS011;11050;52.222;20.916;2022-07-23T09:03:17;11.93;;;10.23;;
21777;SDS011;11050;52.222;20.916;2022-07-23T09:05:45;11.40;;;9.57;;
21777;SDS011;11050;52.222;20.916;2022-07-23T09:08:54;11.02;;;9.63;;
21777;SDS011;11050;52.222;20.916;2022-07-23T09:11:04;11.70;;;10.35;;
21777;SDS011;11050;52.222;20.916;2022-07-23T09:13:50;11.98;;;9.73;;
21777;SDS011;11050;52.222;20.916;2022-07-23T09:16:20;11.27;;;9.45;;
21777;SDS011;11050;52.222;20.916;2022-07-23T09:19:04;13.65;;;10.10;;
21777;SDS011;11050;52.222;20.916;2022-07-23T09:21:33;11.93;;;10.65;;
21777;SDS011;11050;52.222;20.916;2022-07-23T09:24:02;15.65;;;9.35;;
21777;SDS011;11050;52.222;20.916;2022-07-23T09:26:37;10.40;;;9.40;;
21777;SDS011;11050;52.222;20.916;2022-07-23T09:29:19;10.88;;;9.68;;
21777;SDS011;11050;52.222;20.916;2022-07-23T09:31:51;10.20;;;9.02;;
21777;SDS011;11050;52.222;20.916;2022-07-23T09:34:26;9.98;;;8.98;;
21777;SDS011;11050;52.222;20.916;2022-07-23T09:36:56;10.95;;;8.65;;
21777;SDS011;11050;52.222;20.916;2022-07-23T09:39:38;12.85;;;9.52;;
21777;SDS011;11050;52.222;20.916;2022-07-23T09:44:45;10.48;;;8.82;;
21777;SDS011;11050;52.222;20.916;2022-07-23T09:47:13;10.38;;;8.57;;
21777;SDS011;11050;52.222;20.916;2022-07-23T09:49:40;12.80;;;8.98;;
21777;SDS011;11050;52.222;20.916;2022-07-23T09:52:28;9.40;;;8.32;;
21777;SDS011;11050;52.222;20.916;2022-07-23T09:55:01;11.02;;;8.32;;
21777;SDS011;11050;52.222;20.916;2022-07-23T09:57:31;11.77;;;8.82;;
21777;SDS011;11050;52.222;20.916;2022-07-23T10:00:00;9.07;;;8.25;;
21777;SDS011;11050;52.222;20.916;2022-07-23T10:02:31;10.30;;;9.18;;
21777;SDS011;11050;52.222;20.916;2022-07-23T10:04:58;9.68;;;8.45;;
21777;SDS011;11050;52.222;20.916;2022-07-23T10:07:27;9.75;;;8.85;;
21777;SDS011;11050;52.222;20.916;2022-07-23T10:09:58;10.68;;;9.57;;
21777;SDS011;11050;52.222;20.916;2022-07-23T10:12:26;12.10;;;9.38;;
21777;SDS011;11050;52.222;20.916;2022-07-23T10:15:05;10.40;;;9.30;;
21777;SDS011;11050;52.222;20.916;2022-07-23T10:17:32;10.10;;;9.10;;
21777;SDS011;11050;52.222;20.916;2022-07-23T10:19:58;10.90;;;7.95;;
21777;SDS011;11050;52.222;20.916;2022-07-23T10:22:26;11.50;;;8.70;;
21777;SDS011;11050;52.222;20.916;2022-07-23T10:33:57;11.63;;;8.15;;
21777;SDS011;11050;52.222;20.916;2022-07-23T10:39:32;9.05;;;8.23;;
21777;SDS011;11050;52.222;20.916;2022-07-23T10:42:16;9.13;;;8.27;;
21777;SDS011;11050;52.222;20.916;2022-07-23T10:44:43;9.43;;;7.82;;
21777;SDS011;11050;52.222;20.916;2022-07-23T10:47:12;9.23;;;8.25;;
21777;SDS011;11050;52.222;20.916;2022-07-23T10:57:57;9.25;;;7.95;;
21777;SDS011;11050;52.222;20.916;2022-07-23T11:00:28;9.60;;;8.55;;
21777;SDS011;11050;52.222;20.916;2022-07-23T11:02:57;9.25;;;8.18;;
21777;SDS011;11050;52.222;20.916;2022-07-23T11:10:44;9.73;;;8.73;;
21777;SDS011;11050;52.222;20.916;2022-07-23T11:26:58;10.88;;;8.65;;
21777;SDS011;11050;52.222;20.916;2022-07-23T11:34:55;8.93;;;7.60;;
21777;SDS011;11050;52.222;20.916;2022-07-23T11:39:58;9.23;;;8.10;;
21777;SDS011;11050;52.222;20.916;2022-07-23T11:42:25;9.25;;;8.07;;
21777;SDS011;11050;52.222;20.916;2022-07-23T11:44:51;10.20;;;7.75;;
21777;SDS011;11050;52.222;20.916;2022-07-23T11:47:21;8.95;;;8.13;;
21777;SDS011;11050;52.222;20.916;2022-07-23T11:49:58;10.07;;;8.23;;
21777;SDS011;11050;52.222;20.916;2022-07-23T11:52:27;8.73;;;7.93;;
21777;SDS011;11050;52.222;20.916;2022-07-23T11:57:32;8.45;;;7.65;;
21777;SDS011;11050;52.222;20.916;2022-07-23T12:02:43;8.93;;;7.60;;
21777;SDS011;11050;52.222;20.916;2022-07-23T12:05:13;9.27;;;7.32;;
21777;SDS011;11050;52.222;20.916;2022-07-23T12:07:43;14.57;;;13.23;;
21777;SDS011;11050;52.222;20.916;2022-07-23T12:15:21;8.77;;;7.97;;
21777;SDS011;11050;52.222;20.916;2022-07-23T12:17:51;8.02;;;7.40;;
21777;SDS011;11050;52.222;20.916;2022-07-23T12:20:20;8.43;;;7.57;;
21777;SDS011;11050;52.222;20.916;2022-07-23T12:22:52;8.43;;;7.63;;
21777;SDS011;11050;52.222;20.916;2022-07-23T12:25:28;8.32;;;7.53;;
21777;SDS011;11050;52.222;20.916;2022-07-23T12:28:14;11.23;;;7.60;;
21777;SDS011;11050;52.222;20.916;2022-07-23T12:33:11;8.88;;;8.07;;
21777;SDS011;11050;52.222;20.916;2022-07-23T12:35:46;7.80;;;7.10;;
21777;SDS011;11050;52.222;20.916;2022-07-23T12:38:14;7.95;;;7.35;;
21777;SDS011;11050;52.222;20.916;2022-07-23T12:40:44;8.70;;;7.90;;
21777;SDS011;11050;52.222;20.916;2022-07-23T12:43:21;9.50;;;8.48;;
21777;SDS011;11050;52.222;20.916;2022-07-23T12:45:57;9.32;;;8.45;;
21777;SDS011;11050;52.222;20.916;2022-07-23T12:53:45;8.45;;;7.75;;
21777;SDS011;11050;52.222;20.916;2022-07-23T12:56:16;10.02;;;7.50;;
21777;SDS011;11050;52.222;20.916;2022-07-23T13:01:44;10.35;;;7.95;;
21777;SDS011;11050;52.222;20.916;2022-07-23T13:04:20;9.60;;;7.68;;
21777;SDS011;11050;52.222;20.916;2022-07-23T13:06:49;8.27;;;7.47;;
21777;SDS011;11050;52.222;20.916;2022-07-23T13:09:24;7.80;;;7.10;;
21777;SDS011;11050;52.222;20.916;2022-07-23T13:11:56;9.32;;;7.22;;
21777;SDS011;11050;52.222;20.916;2022-07-23T13:14:23;9.40;;;7.78;;
21777;SDS011;11050;52.222;20.916;2022-07-23T13:16:51;9.05;;;8.15;;
21777;SDS011;11050;52.222;20.916;2022-07-23T13:19:19;8.13;;;7.43;;
21777;SDS011;11050;52.222;20.916;2022-07-23T13:21:47;11.77;;;7.80;;
21777;SDS011;11050;52.222;20.916;2022-07-23T13:24:14;8.23;;;7.45;;
21777;SDS011;11050;52.222;20.916;2022-07-23T13:26:40;8.13;;;7.32;;
21777;SDS011;11050;52.222;20.916;2022-07-23T13:29:07;9.30;;;8.40;;
21777;SDS011;11050;52.222;20.916;2022-07-23T13:31:33;7.70;;;7.00;;
21777;SDS011;11050;52.222;20.916;2022-07-23T13:34:02;8.80;;;7.90;;
21777;SDS011;11050;52.222;20.916;2022-07-23T13:36:28;7.90;;;7.10;;
21777;SDS011;11050;52.222;20.916;2022-07-23T13:38:53;9.13;;;8.23;;
21777;SDS011;11050;52.222;20.916;2022-07-23T13:41:19;9.35;;;8.45;;
21777;SDS011;11050;52.222;20.916;2022-07-23T13:43:45;10.32;;;8.15;;
21777;SDS011;11050;52.222;20.916;2022-07-23T13:46:11;8.77;;;7.90;;
21777;SDS011;11050;52.222;20.916;2022-07-23T13:48:37;9.02;;;8.18;;
21777;SDS011;11050;52.222;20.916;2022-07-23T13:51:02;9.35;;;8.45;;
21777;SDS011;11050;52.222;20.916;2022-07-23T13:53:28;9.07;;;8.18;;
21777;SDS011;11050;52.222;20.916;2022-07-23T13:55:54;9.00;;;8.18;;
21777;SDS011;11050;52.222;20.916;2022-07-23T13:58:21;9.55;;;8.13;;
21777;SDS011;11050;52.222;20.916;2022-07-23T14:00:48;8.95;;;8.05;;
21777;SDS011;11050;52.222;20.916;2022-07-23T14:03:18;9.82;;;8.55;;
21777;SDS011;11050;52.222;20.916;2022-07-23T14:05:47;9.70;;;8.23;;
21777;SDS011;11050;52.222;20.916;2022-07-23T14:08:14;10.02;;;9.13;;
21777;SDS011;11050;52.222;20.916;2022-07-23T14:10:39;9.70;;;8.90;;
21777;SDS011;11050;52.222;20.916;2022-07-23T14:13:05;9.50;;;8.70;;
21777;SDS011;11050;52.222;20.916;2022-07-23T14:15:32;10.15;;;9.15;;
21777;SDS011;11050;52.222;20.916;2022-07-23T14:17:58;9.80;;;8.88;;
21777;SDS011;11050;52.222;20.916;2022-07-23T14:20:25;9.95;;;9.00;;
21777;SDS011;11050;52.222;20.916;2022-07-23T14:22:51;10.52;;;9.23;;
21777;SDS011;11050;52.222;20.916;2022-07-23T14:25:20;10.90;;;8.80;;
21777;SDS011;11050;52.222;20.916;2022-07-23T14:27:47;10.18;;;9.13;;
21777;SDS011;11050;52.222;20.916;2022-07-23T14:30:13;10.10;;;9.07;;
21777;SDS011;11050;52.222;20.916;2022-07-23T14:32:40;15.93;;;8.15;;
21777;SDS011;11050;52.222;20.916;2022-07-23T14:35:06;40.67;;;8.38;;
21777;SDS011;11050;52.222;20.916;2022-07-23T14:37:32;29.05;;;7.60;;
21777;SDS011;11050;52.222;20.916;2022-07-23T14:39:58;44.10;;;8.35;;
21777;SDS011;11050;52.222;20.916;2022-07-23T14:42:24;55.47;;;9.30;;
21777;SDS011;11050;52.222;20.916;2022-07-23T14:44:51;27.45;;;7.78;;
21777;SDS011;11050;52.222;20.916;2022-07-23T14:47:16;18.48;;;7.70;;
21777;SDS011;11050;52.222;20.916;2022-07-23T14:49:42;11.60;;;8.07;;
21777;SDS011;11050;52.222;20.916;2022-07-23T14:52:08;11.77;;;8.98;;
21777;SDS011;11050;52.222;20.916;2022-07-23T14:54:34;17.35;;;9.07;;
21777;SDS011;11050;52.222;20.916;2022-07-23T14:57:01;11.55;;;7.50;;
21777;SDS011;11050;52.222;20.916;2022-07-23T14:59:27;14.98;;;8.05;;
21777;SDS011;11050;52.222;20.916;2022-07-23T15:01:55;15.57;;;9.55;;
21777;SDS011;11050;52.222;20.916;2022-07-23T15:04:22;11.60;;;9.23;;
21777;SDS011;11050;52.222;20.916;2022-07-23T15:06:48;13.05;;;9.48;;
21777;SDS011;11050;52.222;20.916;2022-07-23T15:09:14;11.57;;;9.70;;
21777;SDS011;11050;52.222;20.916;2022-07-23T15:11:40;11.80;;;9.70;;
21777;SDS011;11050;52.222;20.916;2022-07-23T15:14:07;13.00;;;11.13;;
21777;SDS011;11050;52.222;20.916;2022-07-23T15:16:34;16.30;;;11.95;;
21777;SDS011;11050;52.222;20.916;2022-07-23T15:19:01;15.75;;;11.07;;
21777;SDS011;11050;52.222;20.916;2022-07-23T15:21:28;16.00;;;11.45;;
21777;SDS011;11050;52.222;20.916;2022-07-23T15:23:56;17.58;;;13.63;;
21777;SDS011;11050;52.222;20.916;2022-07-23T15:26:26;16.70;;;13.90;;
21777;SDS011;11050;52.222;20.916;2022-07-23T15:28:54;17.23;;;14.13;;
21777;SDS011;11050;52.222;20.916;2022-07-23T15:31:22;18.92;;;13.63;;